sensor_id;sensor_type;location;lat;lon;timestamp;pressure;altitude;pressure_sealevel;temperature;humidity
69214;BME280;56325;47.030;18.518;2022-08-21T00:01:39;99892.56;;;20.11;74.83
69214;BME280;56325;47.030;18.518;2022-08-21T00:04:14;99884.41;;;20.13;74.84
69214;BME280;56325;47.030;18.518;2022-08-21T00:06:53;99890.00;;;20.13;74.77
69214;BME280;56325;47.030;18.518;2022-08-21T00:09:28;99879.47;;;20.06;75.21
69214;BME280;56325;47.030;18.518;2022-08-21T00:12:04;99882.56;;;20.03;75.18
69214;BME280;56325;47.030;18.518;2022-08-21T00:14:40;99884.47;;;19.94;75.23
69214;BME280;56325;47.030;18.518;2022-08-21T00:17:17;99864.53;;;20.04;75.14
69214;BME280;56325;47.030;18.518;2022-08-21T00:19:52;99869.25;;;19.95;75.39
69214;BME280;56325;47.030;18.518;2022-08-21T00:22:26;99865.69;;;19.82;75.55
69214;BME280;56325;47.030;18.518;2022-08-21T00:25:01;99866.66;;;19.84;75.79
69214;BME280;56325;47.030;18.518;2022-08-21T00:27:37;99859.22;;;19.74;76.12
69214;BME280;56325;47.030;18.518;2022-08-21T00:30:13;99860.28;;;19.71;76.19
69214;BME280;56325;47.030;18.518;2022-08-21T00:32:56;99857.44;;;19.57;76.55
69214;BME280;56325;47.030;18.518;2022-08-21T00:35:34;99859.97;;;19.74;76.00
69214;BME280;56325;47.030;18.518;2022-08-21T00:38:09;99857.13;;;19.61;76.41
69214;BME280;56325;47.030;18.518;2022-08-21T00:40:48;99857.88;;;19.61;76.37
69214;BME280;56325;47.030;18.518;2022-08-21T00:43:25;99858.94;;;19.58;76.30
69214;BME280;56325;47.030;18.518;2022-08-21T00:46:02;99860.59;;;19.67;76.13
69214;BME280;56325;47.030;18.518;2022-08-21T00:48:36;99870.16;;;19.72;75.88
69214;BME280;56325;47.030;18.518;2022-08-21T00:51:15;99856.37;;;19.60;76.59
69214;BME280;56325;47.030;18.518;2022-08-21T00:53:57;99866.25;;;19.61;76.03
69214;BME280;56325;47.030;18.518;2022-08-21T00:56:35;99860.72;;;19.75;75.57
69214;BME280;56325;47.030;18.518;2022-08-21T00:59:10;99867.84;;;19.57;76.65
69214;BME280;56325;47.030;18.518;2022-08-21T01:01:45;99870.56;;;19.62;76.11
69214;BME280;56325;47.030;18.518;2022-08-21T01:04:20;99859.84;;;19.67;76.08
69214;BME280;56325;47.030;18.518;2022-08-21T01:06:54;99855.31;;;19.63;75.92
69214;BME280;56325;47.030;18.518;2022-08-21T01:09:29;99853.06;;;19.62;75.96
69214;BME280;56325;47.030;18.518;2022-08-21T01:12:04;99847.72;;;19.64;75.78
69214;BME280;56325;47.030;18.518;2022-08-21T01:14:41;99847.94;;;19.66;75.75
69214;BME280;56325;47.030;18.518;2022-08-21T01:17:17;99849.66;;;19.50;76.59
69214;BME280;56325;47.030;18.518;2022-08-21T01:19:57;99844.34;;;19.52;76.58
69214;BME280;56325;47.030;18.518;2022-08-21T01:22:34;99843.50;;;19.39;76.95
69214;BME280;56325;47.030;18.518;2022-08-21T01:25:10;99842.00;;;19.56;76.04
69214;BME280;56325;47.030;18.518;2022-08-21T01:27:45;99842.31;;;19.53;76.24
69214;BME280;56325;47.030;18.518;2022-08-21T01:30:23;99832.56;;;19.41;76.74
69214;BME280;56325;47.030;18.518;2022-08-21T01:32:58;99837.00;;;19.49;76.59
69214;BME280;56325;47.030;18.518;2022-08-21T01:35:33;99837.75;;;19.50;76.64
69214;BME280;56325;47.030;18.518;2022-08-21T01:38:09;99839.56;;;19.47;76.80
69214;BME280;56325;47.030;18.518;2022-08-21T01:40:43;99845.97;;;19.61;76.39
69214;BME280;56325;47.030;18.518;2022-08-21T01:43:17;99839.97;;;19.57;76.22
69214;BME280;56325;47.030;18.518;2022-08-21T01:46:04;99842.44;;;19.60;76.51
69214;BME280;56325;47.030;18.518;2022-08-21T01:48:38;99841.03;;;19.54;76.46
69214;BME280;56325;47.030;18.518;2022-08-21T01:51:12;99844.56;;;19.54;76.31
69214;BME280;56325;47.030;18.518;2022-08-21T01:53:48;99841.81;;;19.68;75.73
69214;BME280;56325;47.030;18.518;2022-08-21T01:56:24;99839.47;;;19.72;75.60
69214;BME280;56325;47.030;18.518;2022-08-21T01:58:58;99832.69;;;19.67;76.00
69214;BME280;56325;47.030;18.518;2022-08-21T02:01:33;99832.34;;;19.57;76.43
69214;BME280;56325;47.030;18.518;2022-08-21T02:04:08;99827.22;;;19.61;76.40
69214;BME280;56325;47.030;18.518;2022-08-21T02:06:43;99828.81;;;19.57;76.97
69214;BME280;56325;47.030;18.518;2022-08-21T02:09:19;99828.84;;;19.70;75.91
69214;BME280;56325;47.030;18.518;2022-08-21T02:11:56;99831.94;;;19.67;76.13
69214;BME280;56325;47.030;18.518;2022-08-21T02:14:30;99830.88;;;19.70;76.13
69214;BME280;56325;47.030;18.518;2022-08-21T02:17:05;99831.41;;;19.68;76.39
69214;BME280;56325;47.030;18.518;2022-08-21T02:19:41;99827.91;;;19.81;75.94
69214;BME280;56325;47.030;18.518;2022-08-21T02:22:15;99835.22;;;19.84;75.80
69214;BME280;56325;47.030;18.518;2022-08-21T02:24:51;99822.97;;;19.74;76.35
69214;BME280;56325;47.030;18.518;2022-08-21T02:27:27;99821.16;;;19.89;75.83
69214;BME280;56325;47.030;18.518;2022-08-21T02:30:07;99819.44;;;20.00;75.29
69214;BME280;56325;47.030;18.518;2022-08-21T02:32:42;99820.19;;;19.87;75.87
69214;BME280;56325;47.030;18.518;2022-08-21T02:35:16;99824.59;;;19.95;75.53
69214;BME280;56325;47.030;18.518;2022-08-21T02:37:54;99815.16;;;19.98;75.26
69214;BME280;56325;47.030;18.518;2022-08-21T02:40:32;99825.87;;;19.81;76.51
69214;BME280;56325;47.030;18.518;2022-08-21T02:43:07;99825.47;;;19.90;75.86
69214;BME280;56325;47.030;18.518;2022-08-21T02:45:44;99821.81;;;19.82;76.51
69214;BME280;56325;47.030;18.518;2022-08-21T02:48:21;99813.56;;;19.90;76.23
69214;BME280;56325;47.030;18.518;2022-08-21T02:50:57;99821.38;;;19.91;76.07
69214;BME280;56325;47.030;18.518;2022-08-21T02:53:33;99820.41;;;19.89;76.16
69214;BME280;56325;47.030;18.518;2022-08-21T02:56:11;99816.53;;;19.79;76.91
69214;BME280;56325;47.030;18.518;2022-08-21T02:58:49;99828.88;;;19.83;76.32
69214;BME280;56325;47.030;18.518;2022-08-21T03:01:23;99818.34;;;19.76;76.67
69214;BME280;56325;47.030;18.518;2022-08-21T03:03:58;99814.19;;;19.83;76.66
69214;BME280;56325;47.030;18.518;2022-08-21T03:06:33;99812.50;;;19.93;76.42
69214;BME280;56325;47.030;18.518;2022-08-21T03:09:07;99810.50;;;19.75;77.38
69214;BME280;56325;47.030;18.518;2022-08-21T03:11:43;99822.78;;;19.85;77.16
69214;BME280;56325;47.030;18.518;2022-08-21T03:14:18;99817.19;;;19.85;76.48
69214;BME280;56325;47.030;18.518;2022-08-21T03:16:52;99824.38;;;19.93;76.14
69214;BME280;56325;47.030;18.518;2022-08-21T03:19:26;99820.41;;;19.89;76.46
69214;BME280;56325;47.030;18.518;2022-08-21T03:22:01;99823.50;;;19.72;77.06
69214;BME280;56325;47.030;18.518;2022-08-21T03:24:35;99822.28;;;19.68;77.24
69214;BME280;56325;47.030;18.518;2022-08-21T03:27:16;99817.16;;;19.72;77.25
69214;BME280;56325;47.030;18.518;2022-08-21T03:29:53;99817.91;;;19.72;77.22
69214;BME280;56325;47.030;18.518;2022-08-21T03:32:28;99813.97;;;19.81;76.94
69214;BME280;56325;47.030;18.518;2022-08-21T03:35:04;99818.66;;;19.73;77.30
69214;BME280;56325;47.030;18.518;2022-08-21T03:37:40;99813.84;;;19.73;77.64
69214;BME280;56325;47.030;18.518;2022-08-21T03:40:16;99824.28;;;19.86;77.55
69214;BME280;56325;47.030;18.518;2022-08-21T03:42:53;99821.94;;;19.90;76.92
69214;BME280;56325;47.030;18.518;2022-08-21T03:45:27;99818.78;;;19.80;77.44
69214;BME280;56325;47.030;18.518;2022-08-21T03:48:04;99823.00;;;19.87;77.11
69214;BME280;56325;47.030;18.518;2022-08-21T03:50:41;99821.09;;;19.63;78.43
69214;BME280;56325;47.030;18.518;2022-08-21T03:53:16;99814.09;;;19.88;77.22
69214;BME280;56325;47.030;18.518;2022-08-21T03:55:52;99822.47;;;19.56;78.34
69214;BME280;56325;47.030;18.518;2022-08-21T03:58:28;99822.72;;;19.72;77.85
69214;BME280;56325;47.030;18.518;2022-08-21T04:01:03;99820.88;;;19.61;78.22
69214;BME280;56325;47.030;18.518;2022-08-21T04:03:39;99829.78;;;19.59;78.22
69214;BME280;56325;47.030;18.518;2022-08-21T04:06:13;99829.06;;;19.72;77.83
69214;BME280;56325;47.030;18.518;2022-08-21T04:08:47;99832.06;;;19.74;77.73
69214;BME280;56325;47.030;18.518;2022-08-21T04:11:22;99825.53;;;19.72;77.83
69214;BME280;56325;47.030;18.518;2022-08-21T04:13:57;99834.72;;;19.67;77.72
69214;BME280;56325;47.030;18.518;2022-08-21T04:16:31;99832.69;;;19.67;77.52
69214;BME280;56325;47.030;18.518;2022-08-21T04:19:06;99839.56;;;19.47;78.68
69214;BME280;56325;47.030;18.518;2022-08-21T04:21:41;99838.38;;;19.61;78.00
69214;BME280;56325;47.030;18.518;2022-08-21T04:24:15;99832.78;;;19.61;78.26
69214;BME280;56325;47.030;18.518;2022-08-21T04:26:50;99839.06;;;19.81;77.09
69214;BME280;56325;47.030;18.518;2022-08-21T04:29:25;99838.66;;;19.90;76.95
69214;BME280;56325;47.030;18.518;2022-08-21T04:32:00;99837.47;;;19.85;76.81
69214;BME280;56325;47.030;18.518;2022-08-21T04:34:34;99829.09;;;19.85;76.84
69214;BME280;56325;47.030;18.518;2022-08-21T04:37:09;99842.16;;;19.77;77.81
69214;BME280;56325;47.030;18.518;2022-08-21T04:39:43;99841.56;;;19.84;77.32
69214;BME280;56325;47.030;18.518;2022-08-21T04:42:23;99843.25;;;19.74;77.07
69214;BME280;56325;47.030;18.518;2022-08-21T04:44:59;99837.69;;;19.87;76.87
69214;BME280;56325;47.030;18.518;2022-08-21T04:47:34;99836.94;;;19.87;76.53
69214;BME280;56325;47.030;18.518;2022-08-21T04:50:28;99839.16;;;19.75;76.99
69214;BME280;56325;47.030;18.518;2022-08-21T04:53:13;99840.59;;;19.95;75.84
69214;BME280;56325;47.030;18.518;2022-08-21T04:55:48;99845.31;;;19.87;76.53
69214;BME280;56325;47.030;18.518;2022-08-21T04:58:25;99848.72;;;19.80;76.75
69214;BME280;56325;47.030;18.518;2022-08-21T05:01:02;99843.50;;;19.89;76.01
69214;BME280;56325;47.030;18.518;2022-08-21T05:03:38;99847.87;;;19.85;76.45
69214;BME280;56325;47.030;18.518;2022-08-21T05:06:15;99846.81;;;19.88;75.93
69214;BME280;56325;47.030;18.518;2022-08-21T05:08:53;99853.69;;;20.00;75.11
69214;BME280;56325;47.030;18.518;2022-08-21T05:11:34;99849.53;;;20.07;74.57
69214;BME280;56325;47.030;18.518;2022-08-21T05:14:10;99848.75;;;20.06;74.47
69214;BME280;56325;47.030;18.518;2022-08-21T05:16:47;99850.22;;;19.81;75.93
69214;BME280;56325;47.030;18.518;2022-08-21T05:19:21;99843.59;;;19.97;75.06
69214;BME280;56325;47.030;18.518;2022-08-21T05:21:56;99850.69;;;19.98;74.84
69214;BME280;56325;47.030;18.518;2022-08-21T05:24:31;99847.78;;;19.90;75.16
69214;BME280;56325;47.030;18.518;2022-08-21T05:27:05;99835.44;;;19.99;75.35
69214;BME280;56325;47.030;18.518;2022-08-21T05:29:40;99833.75;;;20.09;74.72
69214;BME280;56325;47.030;18.518;2022-08-21T05:32:16;99837.59;;;20.06;74.17
69214;BME280;56325;47.030;18.518;2022-08-21T05:34:50;99849.59;;;20.01;74.89
69214;BME280;56325;47.030;18.518;2022-08-21T05:37:25;99848.97;;;20.08;74.51
69214;BME280;56325;47.030;18.518;2022-08-21T05:39:59;99856.25;;;19.98;74.94
69214;BME280;56325;47.030;18.518;2022-08-21T05:42:55;99861.22;;;20.05;74.21
69214;BME280;56325;47.030;18.518;2022-08-21T05:45:32;99856.78;;;20.42;75.43
69214;BME280;56325;47.030;18.518;2022-08-21T05:48:18;99858.50;;;20.71;72.43
69214;BME280;56325;47.030;18.518;2022-08-21T05:50:53;99849.06;;;20.61;74.24
69214;BME280;56325;47.030;18.518;2022-08-21T05:53:28;99847.97;;;20.51;72.48
69214;BME280;56325;47.030;18.518;2022-08-21T05:56:02;99841.19;;;20.73;72.31
69214;BME280;56325;47.030;18.518;2022-08-21T05:58:37;99855.97;;;20.94;71.03
69214;BME280;56325;47.030;18.518;2022-08-21T06:01:11;99851.88;;;21.08;71.04
69214;BME280;56325;47.030;18.518;2022-08-21T06:03:49;99860.81;;;20.93;70.86
69214;BME280;56325;47.030;18.518;2022-08-21T06:06:25;99864.09;;;20.71;71.69
69214;BME280;56325;47.030;18.518;2022-08-21T06:08:59;99867.22;;;20.54;72.35
69214;BME280;56325;47.030;18.518;2022-08-21T06:11:33;99860.44;;;20.50;74.27
69214;BME280;56325;47.030;18.518;2022-08-21T06:14:08;99868.59;;;20.74;71.62
69214;BME280;56325;47.030;18.518;2022-08-21T06:16:42;99859.53;;;20.94;72.00
69214;BME280;56325;47.030;18.518;2022-08-21T06:19:18;99866.72;;;21.03;72.53
69214;BME280;56325;47.030;18.518;2022-08-21T06:21:52;99866.63;;;20.82;72.32
69214;BME280;56325;47.030;18.518;2022-08-21T06:24:27;99863.81;;;20.95;71.47
69214;BME280;56325;47.030;18.518;2022-08-21T06:27:04;99870.09;;;20.75;72.15
69214;BME280;56325;47.030;18.518;2022-08-21T06:29:41;99861.66;;;21.02;71.48
69214;BME280;56325;47.030;18.518;2022-08-21T06:32:16;99867.09;;;20.73;72.10
69214;BME280;56325;47.030;18.518;2022-08-21T06:34:52;99864.09;;;20.71;72.78
69214;BME280;56325;47.030;18.518;2022-08-21T06:37:26;99867.22;;;20.54;73.00
69214;BME280;56325;47.030;18.518;2022-08-21T06:40:01;99873.41;;;20.87;72.06
69214;BME280;56325;47.030;18.518;2022-08-21T06:42:36;99866.94;;;21.05;72.60
69214;BME280;56325;47.030;18.518;2022-08-21T06:45:13;99871.31;;;21.14;72.76
69214;BME280;56325;47.030;18.518;2022-08-21T06:47:47;99878.66;;;21.04;71.01
69214;BME280;56325;47.030;18.518;2022-08-21T06:50:23;99867.97;;;21.15;71.61
69214;BME280;56325;47.030;18.518;2022-08-21T06:52:59;99866.38;;;21.07;72.14
69214;BME280;56325;47.030;18.518;2022-08-21T06:55:34;99872.22;;;20.95;72.35
69214;BME280;56325;47.030;18.518;2022-08-21T06:58:09;99878.31;;;21.07;71.27
69214;BME280;56325;47.030;18.518;2022-08-21T07:00:47;99880.97;;;21.39;71.51
69214;BME280;56325;47.030;18.518;2022-08-21T07:03:24;99877.13;;;21.29;70.48
69214;BME280;56325;47.030;18.518;2022-08-21T07:06:02;99874.75;;;21.20;71.31
69214;BME280;56325;47.030;18.518;2022-08-21T07:08:37;99863.69;;;21.27;71.40
69214;BME280;56325;47.030;18.518;2022-08-21T07:11:14;99866.13;;;21.65;70.48
69214;BME280;56325;47.030;18.518;2022-08-21T07:13:51;99871.16;;;21.67;69.95
69214;BME280;56325;47.030;18.518;2022-08-21T07:16:27;99857.56;;;21.71;69.33
69214;BME280;56325;47.030;18.518;2022-08-21T07:19:01;99863.94;;;21.50;70.18
69214;BME280;56325;47.030;18.518;2022-08-21T07:21:37;99865.84;;;21.55;70.20
69214;BME280;56325;47.030;18.518;2022-08-21T07:24:11;99856.28;;;21.72;70.26
69214;BME280;56325;47.030;18.518;2022-08-21T07:26:46;99863.72;;;21.90;69.13
69214;BME280;56325;47.030;18.518;2022-08-21T07:29:20;99862.50;;;21.57;70.28
69214;BME280;56325;47.030;18.518;2022-08-21T07:31:55;99852.12;;;21.86;69.61
69214;BME280;56325;47.030;18.518;2022-08-21T07:34:29;99851.78;;;22.10;68.64
69214;BME280;56325;47.030;18.518;2022-08-21T07:37:05;99849.44;;;22.22;68.80
69214;BME280;56325;47.030;18.518;2022-08-21T07:39:42;99840.66;;;22.18;69.11
69214;BME280;56325;47.030;18.518;2022-08-21T07:42:17;99847.59;;;22.24;67.77
69214;BME280;56325;47.030;18.518;2022-08-21T07:44:51;99846.78;;;21.96;68.68
69214;BME280;56325;47.030;18.518;2022-08-21T07:47:28;99842.00;;;21.83;69.29
69214;BME280;56325;47.030;18.518;2022-08-21T07:50:15;99844.59;;;21.81;69.13
69214;BME280;56325;47.030;18.518;2022-08-21T07:52:51;99849.25;;;21.78;69.75
69214;BME280;56325;47.030;18.518;2022-08-21T07:55:26;99855.53;;;21.71;70.02
69214;BME280;56325;47.030;18.518;2022-08-21T07:58:00;99843.72;;;21.86;70.06
69214;BME280;56325;47.030;18.518;2022-08-21T08:00:35;99845.09;;;22.13;69.40
69214;BME280;56325;47.030;18.518;2022-08-21T08:03:10;99841.91;;;22.38;67.71
69214;BME280;56325;47.030;18.518;2022-08-21T08:05:44;99839.50;;;22.42;68.31
69214;BME280;56325;47.030;18.518;2022-08-21T08:08:20;99847.44;;;22.30;68.14
69214;BME280;56325;47.030;18.518;2022-08-21T08:10:56;99845.69;;;22.19;67.87
69214;BME280;56325;47.030;18.518;2022-08-21T08:13:31;99838.78;;;22.20;68.32
69214;BME280;56325;47.030;18.518;2022-08-21T08:16:06;99832.66;;;22.22;68.70
69214;BME280;56325;47.030;18.518;2022-08-21T08:18:41;99835.41;;;22.43;68.23
69214;BME280;56325;47.030;18.518;2022-08-21T08:21:15;99829.84;;;22.22;68.78
69214;BME280;56325;47.030;18.518;2022-08-21T08:23:53;99827.81;;;22.58;68.43
69214;BME280;56325;47.030;18.518;2022-08-21T08:26:27;99822.59;;;22.27;67.98
69214;BME280;56325;47.030;18.518;2022-08-21T08:29:02;99826.78;;;22.12;68.62
69214;BME280;56325;47.030;18.518;2022-08-21T08:31:36;99824.13;;;22.07;68.78
69214;BME280;56325;47.030;18.518;2022-08-21T08:34:10;99821.78;;;22.18;69.14
69214;BME280;56325;47.030;18.518;2022-08-21T08:36:56;99836.59;;;22.27;69.13
69214;BME280;56325;47.030;18.518;2022-08-21T08:39:34;99834.88;;;22.52;67.49
69214;BME280;56325;47.030;18.518;2022-08-21T08:42:13;99834.28;;;22.46;67.96
69214;BME280;56325;47.030;18.518;2022-08-21T08:45:08;99835.00;;;22.39;68.14
69214;BME280;56325;47.030;18.518;2022-08-21T08:47:47;99834.00;;;22.29;68.75
69214;BME280;56325;47.030;18.518;2022-08-21T08:50:26;99834.50;;;22.48;67.74
69214;BME280;56325;47.030;18.518;2022-08-21T08:53:04;99832.84;;;22.52;68.16
69214;BME280;56325;47.030;18.518;2022-08-21T08:55:42;99834.50;;;22.48;68.38
69214;BME280;56325;47.030;18.518;2022-08-21T08:58:20;99830.97;;;22.55;68.52
69214;BME280;56325;47.030;18.518;2022-08-21T09:00:56;99829.47;;;22.90;67.31
69214;BME280;56325;47.030;18.518;2022-08-21T09:03:31;99832.50;;;23.00;67.35
69214;BME280;56325;47.030;18.518;2022-08-21T09:06:25;99833.22;;;22.93;66.77
69214;BME280;56325;47.030;18.518;2022-08-21T09:09:15;99830.12;;;22.75;67.20
69214;BME280;56325;47.030;18.518;2022-08-21T09:12:00;99838.09;;;22.92;67.20
69214;BME280;56325;47.030;18.518;2022-08-21T09:14:50;99835.63;;;22.88;66.69
69214;BME280;56325;47.030;18.518;2022-08-21T09:17:40;99824.13;;;22.71;67.07
69214;BME280;56325;47.030;18.518;2022-08-21T09:20:25;99832.47;;;22.92;67.15
69214;BME280;56325;47.030;18.518;2022-08-21T09:23:15;99813.06;;;23.02;66.71
69214;BME280;56325;47.030;18.518;2022-08-21T09:25:58;99814.62;;;23.18;65.80
69214;BME280;56325;47.030;18.518;2022-08-21T09:28:39;99809.38;;;23.22;66.44
69214;BME280;56325;47.030;18.518;2022-08-21T09:31:22;99811.28;;;23.42;65.86
69214;BME280;56325;47.030;18.518;2022-08-21T09:33:58;99815.50;;;23.05;67.02
69214;BME280;56325;47.030;18.518;2022-08-21T09:36:38;99808.28;;;23.25;65.68
69214;BME280;56325;47.030;18.518;2022-08-21T09:39:27;99809.19;;;23.20;66.51
69214;BME280;56325;47.030;18.518;2022-08-21T09:42:06;99806.78;;;23.47;65.28
69214;BME280;56325;47.030;18.518;2022-08-21T09:44:42;99801.97;;;23.63;64.53
69214;BME280;56325;47.030;18.518;2022-08-21T09:47:19;99801.22;;;23.62;65.03
69214;BME280;56325;47.030;18.518;2022-08-21T09:50:08;99802.72;;;23.71;64.09
69214;BME280;56325;47.030;18.518;2022-08-21T09:52:46;99799.00;;;23.76;63.90
69214;BME280;56325;47.030;18.518;2022-08-21T09:55:28;99795.25;;;23.96;63.61
69214;BME280;56325;47.030;18.518;2022-08-21T09:58:31;99790.75;;;23.85;63.70
69214;BME280;56325;47.030;18.518;2022-08-21T10:01:13;99796.00;;;23.74;63.31
69214;BME280;56325;47.030;18.518;2022-08-21T10:03:48;99802.91;;;23.65;64.51
69214;BME280;56325;47.030;18.518;2022-08-21T10:06:26;99801.41;;;23.72;63.22
69214;BME280;56325;47.030;18.518;2022-08-21T10:09:05;99797.13;;;23.63;63.85
69214;BME280;56325;47.030;18.518;2022-08-21T10:11:43;99788.50;;;23.84;63.85
69214;BME280;56325;47.030;18.518;2022-08-21T10:14:34;99782.88;;;23.84;63.01
69214;BME280;56325;47.030;18.518;2022-08-21T10:17:20;99795.25;;;23.89;63.85
69214;BME280;56325;47.030;18.518;2022-08-21T10:20:04;99790.19;;;23.87;62.53
69214;BME280;56325;47.030;18.518;2022-08-21T10:22:47;99794.13;;;23.84;63.92
69214;BME280;56325;47.030;18.518;2022-08-21T10:25:31;99787.00;;;23.98;63.99
69214;BME280;56325;47.030;18.518;2022-08-21T10:28:10;99787.75;;;23.83;63.22
69214;BME280;56325;47.030;18.518;2022-08-21T10:30:50;99783.06;;;23.63;64.10
69214;BME280;56325;47.030;18.518;2022-08-21T10:33:35;99781.59;;;23.70;64.11
69214;BME280;56325;47.030;18.518;2022-08-21T10:36:17;99785.50;;;23.90;63.62
69214;BME280;56325;47.030;18.518;2022-08-21T10:39:00;99781.03;;;23.79;63.77
69214;BME280;56325;47.030;18.518;2022-08-21T10:42:21;99789.63;;;23.81;63.23
69214;BME280;56325;47.030;18.518;2022-08-21T10:45:09;99776.91;;;23.80;63.45
69214;BME280;56325;47.030;18.518;2022-08-21T10:47:48;99773.16;;;24.00;63.52
69214;BME280;56325;47.030;18.518;2022-08-21T10:50:32;99764.34;;;23.96;62.55
69214;BME280;56325;47.030;18.518;2022-08-21T10:53:30;99775.03;;;23.82;62.81
69214;BME280;56325;47.030;18.518;2022-08-21T10:56:15;99781.00;;;23.86;62.80
69214;BME280;56325;47.030;18.518;2022-08-21T10:59:04;99779.91;;;23.90;62.71
69214;BME280;56325;47.030;18.518;2022-08-21T11:01:46;99775.59;;;23.73;62.61
69214;BME280;56325;47.030;18.518;2022-08-21T11:04:25;99774.09;;;23.80;63.26
69214;BME280;56325;47.030;18.518;2022-08-21T11:07:25;99784.00;;;23.96;63.02
69214;BME280;56325;47.030;18.518;2022-08-21T11:10:10;99774.28;;;23.97;62.55
69214;BME280;56325;47.030;18.518;2022-08-21T11:12:54;99778.75;;;24.00;63.17
69214;BME280;56325;47.030;18.518;2022-08-21T11:15:37;99790.75;;;23.93;62.25
69214;BME280;56325;47.030;18.518;2022-08-21T11:18:19;99776.53;;;23.76;64.12
69214;BME280;56325;47.030;18.518;2022-08-21T11:21:04;99772.78;;;23.66;64.11
69214;BME280;56325;47.030;18.518;2022-08-21T11:23:46;99777.28;;;23.69;63.12
69214;BME280;56325;47.030;18.518;2022-08-21T11:26:32;99777.28;;;23.76;63.88
69214;BME280;56325;47.030;18.518;2022-08-21T11:29:13;99770.91;;;23.68;63.50
69214;BME280;56325;47.030;18.518;2022-08-21T11:32:01;99775.59;;;23.58;63.58
69214;BME280;56325;47.030;18.518;2022-08-21T11:34:49;99776.72;;;23.55;64.54
69214;BME280;56325;47.030;18.518;2022-08-21T11:37:44;99771.25;;;23.49;62.86
69214;BME280;56325;47.030;18.518;2022-08-21T11:40:33;99770.88;;;23.53;64.25
69214;BME280;56325;47.030;18.518;2022-08-21T11:43:14;99769.38;;;23.44;63.71
69214;BME280;56325;47.030;18.518;2022-08-21T11:45:52;99764.87;;;23.49;64.13
69214;BME280;56325;47.030;18.518;2022-08-21T11:48:36;99766.03;;;23.61;62.99
69214;BME280;56325;47.030;18.518;2022-08-21T11:51:17;99768.25;;;23.47;62.98
69214;BME280;56325;47.030;18.518;2022-08-21T11:53:58;99768.25;;;23.47;62.87
69214;BME280;56325;47.030;18.518;2022-08-21T11:56:43;99767.50;;;23.47;62.91
69214;BME280;56325;47.030;18.518;2022-08-21T11:59:23;99767.53;;;23.54;63.21
69214;BME280;56325;47.030;18.518;2022-08-21T12:02:01;99763.03;;;23.51;64.32
69214;BME280;56325;47.030;18.518;2022-08-21T12:04:43;99760.78;;;23.42;63.01
69214;BME280;56325;47.030;18.518;2022-08-21T12:07:31;99755.91;;;23.50;62.82
69214;BME280;56325;47.030;18.518;2022-08-21T12:10:09;99769.75;;;23.41;63.30
69214;BME280;56325;47.030;18.518;2022-08-21T12:12:45;99755.56;;;23.54;62.56
69214;BME280;56325;47.030;18.518;2022-08-21T12:15:27;99759.66;;;23.45;63.82
69214;BME280;56325;47.030;18.518;2022-08-21T12:18:04;99764.34;;;23.35;63.37
69214;BME280;56325;47.030;18.518;2022-08-21T12:20:43;99757.59;;;23.31;63.91
69214;BME280;56325;47.030;18.518;2022-08-21T12:23:27;99756.31;;;23.39;62.89
69214;BME280;56325;47.030;18.518;2022-08-21T12:29:23;99745.28;;;23.57;63.96
69214;BME280;56325;47.030;18.518;2022-08-21T12:32:01;99758.53;;;23.48;62.96
69214;BME280;56325;47.030;18.518;2022-08-21T12:34:41;99753.66;;;23.41;62.95
69214;BME280;56325;47.030;18.518;2022-08-21T12:37:22;99763.97;;;23.39;63.40
69214;BME280;56325;47.030;18.518;2022-08-21T12:39:59;99742.06;;;23.52;64.94
69214;BME280;56325;47.030;18.518;2022-08-21T12:42:38;99750.69;;;23.62;63.22
69214;BME280;56325;47.030;18.518;2022-08-21T12:45:19;99745.81;;;23.47;62.61
69214;BME280;56325;47.030;18.518;2022-08-21T12:47:57;99739.25;;;23.45;62.67
69214;BME280;56325;47.030;18.518;2022-08-21T12:50:36;99748.63;;;23.40;62.92
69214;BME280;56325;47.030;18.518;2022-08-21T12:53:17;99746.19;;;23.36;62.49
69214;BME280;56325;47.030;18.518;2022-08-21T12:55:53;99746.56;;;23.25;63.12
69214;BME280;56325;47.030;18.518;2022-08-21T12:58:33;99744.31;;;23.46;62.80
69214;BME280;56325;47.030;18.518;2022-08-21T13:01:15;99748.06;;;23.41;62.70
69214;BME280;56325;47.030;18.518;2022-08-21T13:03:53;99732.72;;;23.42;62.82
69214;BME280;56325;47.030;18.518;2022-08-21T13:06:38;99732.72;;;23.35;62.20
69214;BME280;56325;47.030;18.518;2022-08-21T13:09:17;99731.03;;;23.47;62.56
69214;BME280;56325;47.030;18.518;2022-08-21T13:11:52;99728.63;;;23.28;63.21
69214;BME280;56325;47.030;18.518;2022-08-21T13:14:30;99727.31;;;23.29;63.66
69214;BME280;56325;47.030;18.518;2022-08-21T13:17:07;99731.59;;;23.30;63.55
69214;BME280;56325;47.030;18.518;2022-08-21T13:19:42;99728.22;;;23.24;63.97
69214;BME280;56325;47.030;18.518;2022-08-21T13:22:27;99724.88;;;23.33;63.64
69214;BME280;56325;47.030;18.518;2022-08-21T13:25:09;99722.81;;;23.18;64.80
69214;BME280;56325;47.030;18.518;2022-08-21T13:27:55;99728.06;;;23.30;65.08
69214;BME280;56325;47.030;18.518;2022-08-21T13:30:39;99717.78;;;23.32;65.07
69214;BME280;56325;47.030;18.518;2022-08-21T13:33:20;99731.59;;;23.30;64.88
69214;BME280;56325;47.030;18.518;2022-08-21T13:36:11;99729.91;;;23.42;63.62
69214;BME280;56325;47.030;18.518;2022-08-21T13:38:47;99723.75;;;23.21;64.29
69214;BME280;56325;47.030;18.518;2022-08-21T13:41:26;99728.81;;;23.30;64.67
69214;BME280;56325;47.030;18.518;2022-08-21T13:44:03;99726.94;;;23.25;64.89
69214;BME280;56325;47.030;18.518;2022-08-21T13:46:38;99727.84;;;23.12;65.33
69214;BME280;56325;47.030;18.518;2022-08-21T13:49:16;99730.28;;;23.24;64.13
69214;BME280;56325;47.030;18.518;2022-08-21T13:51:51;99727.47;;;23.08;64.52